createdAt,value
2022-11-10T00:02:05.200Z,10.81
2022-11-10T00:04:50.189Z,10.80
2022-11-10T00:07:34.976Z,10.79
2022-11-10T00:10:20.356Z,10.77
2022-11-10T00:13:05.246Z,10.76
2022-11-10T00:16:08.628Z,10.76
2022-11-10T00:18:53.748Z,10.75
2022-11-10T00:21:38.586Z,10.76
2022-11-10T00:24:24.190Z,10.68
2022-11-10T00:27:09.400Z,10.75
2022-11-10T00:29:54.397Z,10.78
2022-11-10T00:32:39.548Z,10.79
2022-11-10T00:35:24.269Z,10.81
2022-11-10T00:38:09.337Z,10.83
2022-11-10T00:40:54.234Z,10.82
2022-11-10T00:43:39.462Z,10.83
2022-11-10T00:46:24.496Z,10.85
2022-11-10T00:49:09.510Z,10.86
2022-11-10T00:51:54.433Z,10.86
2022-11-10T00:54:39.380Z,10.83
2022-11-10T00:57:24.173Z,10.84
2022-11-10T01:00:09.800Z,10.84
2022-11-10T01:02:55.769Z,10.82
2022-11-10T01:05:41.447Z,10.76
2022-11-10T01:08:26.643Z,10.72
2022-11-10T01:11:19.205Z,10.70
2022-11-10T01:14:04.237Z,10.55
2022-11-10T01:16:49.051Z,10.65
2022-11-10T01:19:33.974Z,10.64
2022-11-10T01:22:18.777Z,10.64
2022-11-10T01:25:04.443Z,10.64
2022-11-10T01:27:50.951Z,10.62
2022-11-10T01:30:35.860Z,10.60
2022-11-10T01:33:21.537Z,10.61
2022-11-10T01:36:08.005Z,10.59
2022-11-10T01:38:52.831Z,10.58
2022-11-10T01:41:37.974Z,10.49
2022-11-10T01:44:25.136Z,10.51
2022-11-10T01:47:10.253Z,10.60
2022-11-10T01:49:55.226Z,10.60
2022-11-10T01:52:43.888Z,10.59
2022-11-10T01:55:30.441Z,10.49
2022-11-10T01:58:17.544Z,10.60
2022-11-10T02:01:02.685Z,10.60
2022-11-10T02:03:55.805Z,10.59
2022-11-10T02:06:43.509Z,10.56
2022-11-10T02:09:28.420Z,10.54
2022-11-10T02:12:14.819Z,10.54
2022-11-10T02:14:59.779Z,10.54
2022-11-10T02:17:47.416Z,10.54
2022-11-10T02:20:32.742Z,10.53
2022-11-10T02:23:30.103Z,10.54
2022-11-10T02:26:20.734Z,10.51
2022-11-10T02:29:05.834Z,10.52
2022-11-10T02:31:50.550Z,10.52
2022-11-10T02:34:35.415Z,10.51
2022-11-10T02:37:20.284Z,10.52
2022-11-10T02:40:05.874Z,10.54
2022-11-10T02:42:51.113Z,10.54
2022-11-10T02:45:41.948Z,10.57
2022-11-10T02:48:26.793Z,10.57
2022-11-10T02:51:11.585Z,10.52
2022-11-10T02:53:56.452Z,10.54
2022-11-10T02:56:41.596Z,10.55
2022-11-10T02:59:26.469Z,10.54
2022-11-10T03:02:11.470Z,10.53
2022-11-10T03:04:56.264Z,10.51
2022-11-10T03:07:41.140Z,10.51
2022-11-10T03:10:26.877Z,10.51
2022-11-10T03:13:11.836Z,10.48
2022-11-10T03:15:57.106Z,10.46
2022-11-10T03:18:41.866Z,10.44
2022-11-10T03:21:27.098Z,10.44
2022-11-10T03:24:11.911Z,10.35
2022-11-10T03:26:57.072Z,10.45
2022-11-10T03:29:41.860Z,10.45
2022-11-10T03:32:26.827Z,10.44
2022-11-10T03:35:11.940Z,10.43
2022-11-10T03:37:56.713Z,10.46
2022-11-10T03:41:12.087Z,10.46
2022-11-10T03:43:47.739Z,10.34
2022-11-10T03:46:32.470Z,10.28
2022-11-10T03:49:17.415Z,10.44
2022-11-10T03:52:02.488Z,10.44
2022-11-10T03:54:47.587Z,10.43
2022-11-10T03:57:32.249Z,10.38
2022-11-10T04:00:17.380Z,10.22
2022-11-10T04:03:02.475Z,10.33
2022-11-10T04:06:06.003Z,10.30
2022-11-10T04:09:00.070Z,10.18
2022-11-10T04:12:03.694Z,10.28
2022-11-10T04:15:07.465Z,10.24
2022-11-10T04:17:52.484Z,10.22
2022-11-10T04:20:37.369Z,10.22
2022-11-10T04:23:49.756Z,10.17
2022-11-10T04:26:37.443Z,10.11
2022-11-10T04:29:22.423Z,10.08
2022-11-10T04:32:07.412Z,10.05
2022-11-10T04:34:52.401Z,10.04
2022-11-10T04:37:37.445Z,10.03
2022-11-10T04:40:22.397Z,10.01
2022-11-10T04:43:07.309Z,10.00
2022-11-10T04:45:52.374Z,10.00
2022-11-10T04:48:37.627Z,10.00
2022-11-10T04:51:25.496Z,9.98
2022-11-10T04:54:11.688Z,9.94
2022-11-10T04:56:56.621Z,9.90
2022-11-10T04:59:41.486Z,9.83
2022-11-10T05:02:26.364Z,9.81
2022-11-10T05:05:11.715Z,9.79
2022-11-10T05:07:57.138Z,9.73
2022-11-10T05:10:41.939Z,9.69
2022-11-10T05:13:27.032Z,9.66
2022-11-10T05:16:12.749Z,9.50
2022-11-10T05:18:58.229Z,9.57
2022-11-10T05:21:43.428Z,9.56
2022-11-10T05:24:28.218Z,9.53
2022-11-10T05:27:13.138Z,9.50
2022-11-10T05:29:57.935Z,9.38
2022-11-10T05:32:42.800Z,9.39
2022-11-10T05:35:27.553Z,9.35
2022-11-10T05:38:12.461Z,9.31
2022-11-10T05:40:57.365Z,9.30
2022-11-10T05:43:42.618Z,9.28
2022-11-10T05:46:27.690Z,9.28
2022-11-10T05:49:12.351Z,9.31
2022-11-10T05:51:57.158Z,9.33
2022-11-10T05:54:42.225Z,9.30
2022-11-10T05:57:27.311Z,9.27
2022-11-10T06:00:14.191Z,9.25
2022-11-10T06:03:20.093Z,9.21
2022-11-10T06:06:05.826Z,9.17
2022-11-10T06:08:51.951Z,9.13
2022-11-10T06:11:36.713Z,9.11
2022-11-10T06:14:21.756Z,9.06
2022-11-10T06:17:07.270Z,9.14
2022-11-10T06:19:52.695Z,9.12
2022-11-10T06:22:37.505Z,9.09
2022-11-10T06:25:22.308Z,9.07
2022-11-10T06:28:08.516Z,9.03
2022-11-10T06:30:56.810Z,9.09
2022-11-10T06:33:42.806Z,9.11
2022-11-10T06:36:27.935Z,9.13
2022-11-10T06:39:12.808Z,9.12
2022-11-10T06:41:57.949Z,8.96
2022-11-10T06:44:42.914Z,9.11
2022-11-10T06:47:28.308Z,9.14
2022-11-10T06:50:13.402Z,9.19
2022-11-10T06:52:59.921Z,9.22
2022-11-10T06:55:44.831Z,9.29
2022-11-10T06:58:29.569Z,9.31
2022-11-10T07:01:17.624Z,9.34
2022-11-10T07:04:19.236Z,9.35
2022-11-10T07:07:04.822Z,9.39
2022-11-10T07:09:49.730Z,9.39
2022-11-10T07:12:34.601Z,9.40
2022-11-10T07:15:19.350Z,9.44
2022-11-10T07:18:04.986Z,9.34
2022-11-10T07:20:50.065Z,9.48
2022-11-10T07:23:35.065Z,9.50
2022-11-10T07:26:19.957Z,9.56
2022-11-10T07:29:04.865Z,9.62
2022-11-10T07:31:49.759Z,9.65
2022-11-10T07:34:35.012Z,9.65
2022-11-10T07:37:19.908Z,9.65
2022-11-10T07:40:05.663Z,9.65
2022-11-10T07:42:50.582Z,9.65
2022-11-10T07:45:35.483Z,9.72
2022-11-10T07:48:21.069Z,9.77
2022-11-10T07:51:06.200Z,9.80
2022-11-10T07:53:51.311Z,9.90
2022-11-10T07:56:36.085Z,9.96
2022-11-10T07:59:20.895Z,9.95
2022-11-10T08:02:06.512Z,9.93
2022-11-10T08:04:52.046Z,9.95
2022-11-10T08:07:37.112Z,10.04
2022-11-10T08:10:22.250Z,10.13
2022-11-10T08:13:09.177Z,10.18
2022-11-10T08:15:54.382Z,10.35
2022-11-10T08:18:39.124Z,10.43
2022-11-10T08:21:24.006Z,10.49
2022-11-10T08:24:09.087Z,10.70
2022-11-10T08:26:54.206Z,10.82
2022-11-10T08:29:39.012Z,10.89
2022-11-10T08:32:23.878Z,10.94
2022-11-10T08:35:08.698Z,10.97
2022-11-10T08:37:54.008Z,10.94
2022-11-10T08:40:39.989Z,10.89
2022-11-10T08:43:25.492Z,10.83
2022-11-10T08:46:10.608Z,10.80
2022-11-10T08:48:55.375Z,10.77
2022-11-10T08:51:40.208Z,10.71
2022-11-10T08:54:24.956Z,10.64
2022-11-10T08:57:09.820Z,10.54
2022-11-10T08:59:54.655Z,10.58
2022-11-10T09:02:39.519Z,10.68
2022-11-10T09:05:24.372Z,10.78
2022-11-10T09:08:09.885Z,10.84
2022-11-10T09:10:54.708Z,10.93
2022-11-10T09:13:39.468Z,10.97
2022-11-10T09:16:24.528Z,10.97
2022-11-10T09:19:09.910Z,11.02
2022-11-10T09:21:55.117Z,10.95
2022-11-10T09:24:40.166Z,11.01
2022-11-10T09:27:24.978Z,11.04
2022-11-10T09:30:16.174Z,10.94
2022-11-10T09:33:02.537Z,10.94
2022-11-10T09:35:47.232Z,11.08
2022-11-10T09:38:32.048Z,11.33
2022-11-10T09:41:17.642Z,11.64
2022-11-10T09:44:36.585Z,11.99
2022-11-10T09:47:56.167Z,12.18
2022-11-10T09:50:47.555Z,12.54
2022-11-10T09:53:38.704Z,12.48
2022-11-10T09:56:35.334Z,12.55
2022-11-10T09:59:26.469Z,12.85
2022-11-10T10:02:33.575Z,13.08
2022-11-10T10:05:40.223Z,13.09
2022-11-10T10:08:34.378Z,13.18
2022-11-10T10:11:29.991Z,13.18
2022-11-10T10:14:31.285Z,12.98
2022-11-10T10:17:27.334Z,13.03
2022-11-10T10:20:50.862Z,13.07
2022-11-10T10:24:08.512Z,12.90
2022-11-10T10:26:54.185Z,12.92
2022-11-10T10:29:48.063Z,12.92
2022-11-10T10:32:32.971Z,12.76
2022-11-10T10:35:18.673Z,12.69
2022-11-10T10:38:09.679Z,12.95
2022-11-10T10:41:00.327Z,13.36
2022-11-10T10:43:48.811Z,13.85
2022-11-10T10:46:48.294Z,14.13
2022-11-10T10:49:39.103Z,14.29
2022-11-10T10:52:25.337Z,14.06
2022-11-10T10:55:12.791Z,13.69
2022-11-10T10:58:18.625Z,13.34
2022-11-10T11:01:19.412Z,13.02
2022-11-10T11:04:26.290Z,12.79
2022-11-10T11:07:24.135Z,12.63
2022-11-10T11:10:28.226Z,12.82
2022-11-10T11:13:15.018Z,13.25
2022-11-10T11:16:07.653Z,13.77
2022-11-10T11:18:52.746Z,14.34
2022-11-10T11:22:00.649Z,14.55
2022-11-10T11:24:54.218Z,14.66
2022-11-10T11:28:17.195Z,14.84
2022-11-10T11:31:21.438Z,15.31
2022-11-10T11:34:40.004Z,15.67
2022-11-10T11:37:47.219Z,15.73
2022-11-10T11:41:07.557Z,15.98
2022-11-10T11:44:10.215Z,16.23
2022-11-10T11:47:32.899Z,16.48
2022-11-10T11:50:29.313Z,16.55
2022-11-10T11:53:45.534Z,16.39
2022-11-10T11:56:39.425Z,16.47
2022-11-10T11:59:46.424Z,16.82
2022-11-10T12:02:55.202Z,17.11
2022-11-10T12:05:57.139Z,17.35
2022-11-10T12:09:05.985Z,17.47
2022-11-10T12:12:14.784Z,17.47
2022-11-10T12:15:11.903Z,17.51
2022-11-10T12:17:56.721Z,17.57
2022-11-10T12:21:22.029Z,17.54
2022-11-10T12:24:25.862Z,17.63
2022-11-10T12:27:18.231Z,17.90
2022-11-10T12:30:11.073Z,18.12
2022-11-10T12:33:11.872Z,17.95
2022-11-10T12:35:59.088Z,17.77
2022-11-10T12:39:08.638Z,17.51
2022-11-10T12:41:59.638Z,17.25
2022-11-10T12:45:02.185Z,17.46
2022-11-10T12:47:48.353Z,17.63
2022-11-10T12:50:58.293Z,17.47
2022-11-10T12:53:44.099Z,17.37
2022-11-10T12:56:37.604Z,17.52
2022-11-10T12:59:37.543Z,17.53
2022-11-10T13:02:26.008Z,17.45
2022-11-10T13:05:14.207Z,17.52
2022-11-10T13:08:43.718Z,17.64
2022-11-10T13:11:32.875Z,17.78
2022-11-10T13:14:28.285Z,17.62
2022-11-10T13:17:28.661Z,17.57
2022-11-10T13:20:41.614Z,17.46
2022-11-10T13:23:31.235Z,17.47
2022-11-10T13:26:47.407Z,17.54
2022-11-10T13:29:47.408Z,17.41
2022-11-10T13:32:34.442Z,17.32
2022-11-10T13:35:39.664Z,17.46
2022-11-10T13:38:39.857Z,17.46
2022-11-10T13:41:26.343Z,17.30
2022-11-10T13:44:28.098Z,17.41
2022-11-10T13:47:37.850Z,17.57
2022-11-10T13:50:28.975Z,17.65
2022-11-10T13:53:30.194Z,17.61
2022-11-10T13:56:32.999Z,17.52
2022-11-10T13:59:20.516Z,17.67
2022-11-10T14:02:33.792Z,17.74
2022-11-10T14:05:41.931Z,17.64
2022-11-10T14:08:30.961Z,17.57
2022-11-10T14:11:20.974Z,17.63
2022-11-10T14:14:18.632Z,17.66
2022-11-10T14:17:04.553Z,17.56
2022-11-10T14:19:49.635Z,17.48
2022-11-10T14:22:42.932Z,17.31
2022-11-10T14:25:36.276Z,17.29
2022-11-10T14:28:37.476Z,17.26
2022-11-10T14:31:25.454Z,17.04
2022-11-10T14:34:16.147Z,16.86
2022-11-10T14:37:03.245Z,16.96
2022-11-10T14:39:50.801Z,16.86
2022-11-10T14:42:36.045Z,16.69
2022-11-10T14:45:26.871Z,16.62
2022-11-10T14:48:20.862Z,17.03
2022-11-10T14:51:12.871Z,17.56
2022-11-10T14:53:58.208Z,18.50
2022-11-10T14:56:43.655Z,19.74
2022-11-10T14:59:28.710Z,20.83
2022-11-10T15:02:18.560Z,22.12
2022-11-10T15:05:05.355Z,22.55
2022-11-10T15:07:56.276Z,22.33
2022-11-10T15:10:46.102Z,21.47
2022-11-10T15:13:34.154Z,19.81
2022-11-10T15:16:26.837Z,18.83
2022-11-10T15:19:37.974Z,19.29
2022-11-10T15:22:31.190Z,20.90
2022-11-10T15:25:19.157Z,22.14
2022-11-10T15:28:22.927Z,22.34
2022-11-10T15:31:11.784Z,21.86
2022-11-10T15:33:59.464Z,20.96
2022-11-10T15:36:44.516Z,19.30
2022-11-10T15:39:30.097Z,17.92
2022-11-10T15:42:18.429Z,16.83
2022-11-10T15:45:03.667Z,16.03
2022-11-10T15:47:48.875Z,15.32
2022-11-10T15:50:33.902Z,14.74
2022-11-10T15:53:27.857Z,14.24
2022-11-10T15:56:17.038Z,13.92
2022-11-10T15:59:02.810Z,13.59
2022-11-10T16:01:48.159Z,13.31
2022-11-10T16:04:32.957Z,13.03
2022-11-10T16:07:18.202Z,12.78
2022-11-10T16:10:04.383Z,12.60
2022-11-10T16:12:49.124Z,12.46
2022-11-10T16:15:34.416Z,12.29
2022-11-10T16:18:22.714Z,12.16
2022-11-10T16:21:12.775Z,12.06
2022-11-10T16:23:57.603Z,11.89
2022-11-10T16:26:42.448Z,11.70
2022-11-10T16:29:27.424Z,11.54
2022-11-10T16:32:12.351Z,11.42
2022-11-10T16:34:57.523Z,11.34
2022-11-10T16:37:43.222Z,11.25
2022-11-10T16:40:28.351Z,11.17
2022-11-10T16:43:17.240Z,11.09
2022-11-10T16:46:06.481Z,10.97
2022-11-10T16:48:54.765Z,10.87
2022-11-10T16:51:47.262Z,10.81
2022-11-10T16:54:33.634Z,10.73
2022-11-10T16:57:20.408Z,10.68
2022-11-10T17:00:05.836Z,10.62
2022-11-10T17:03:00.656Z,10.50
2022-11-10T17:05:45.796Z,10.43
2022-11-10T17:08:33.895Z,10.37
2022-11-10T17:11:19.200Z,10.32
2022-11-10T17:14:04.400Z,10.29
2022-11-10T17:16:49.302Z,10.30
2022-11-10T17:19:34.392Z,10.27
2022-11-10T17:22:21.568Z,10.16
2022-11-10T17:25:13.047Z,10.07
2022-11-10T17:27:58.146Z,9.96
2022-11-10T17:30:42.987Z,9.82
2022-11-10T17:33:27.824Z,9.74
2022-11-10T17:36:17.932Z,9.67
2022-11-10T17:39:03.290Z,9.58
2022-11-10T17:41:48.907Z,9.49
2022-11-10T17:44:33.989Z,9.38
2022-11-10T17:47:19.016Z,9.26
2022-11-10T17:50:04.207Z,9.20
2022-11-10T17:52:49.952Z,9.18
2022-11-10T17:55:36.830Z,9.18
2022-11-10T17:58:22.043Z,9.18
2022-11-10T18:01:16.504Z,9.21
2022-11-10T18:04:01.459Z,9.23
2022-11-10T18:06:46.256Z,9.23
2022-11-10T18:09:31.032Z,9.22
2022-11-10T18:12:16.003Z,9.21
2022-11-10T18:15:00.853Z,9.19
2022-11-10T18:17:45.863Z,9.13
2022-11-10T18:20:30.641Z,9.06
2022-11-10T18:23:15.508Z,9.03
2022-11-10T18:26:06.100Z,9.03
2022-11-10T18:28:51.133Z,9.01
2022-11-10T18:31:36.046Z,8.95
2022-11-10T18:34:20.879Z,8.99
2022-11-10T18:37:05.737Z,8.94
2022-11-10T18:39:50.684Z,8.93
2022-11-10T18:42:36.091Z,8.90
2022-11-10T18:45:20.852Z,8.88
2022-11-10T18:48:05.960Z,8.86
2022-11-10T18:50:50.766Z,8.87
2022-11-10T18:53:38.215Z,8.89
2022-11-10T18:56:23.772Z,8.94
2022-11-10T18:59:08.667Z,8.94
2022-11-10T19:01:53.801Z,8.94
2022-11-10T19:04:39.013Z,8.73
2022-11-10T19:07:23.994Z,8.87
2022-11-10T19:10:08.933Z,8.78
2022-11-10T19:12:53.866Z,8.66
2022-11-10T19:15:41.812Z,8.55
2022-11-10T19:18:29.882Z,8.50
2022-11-10T19:21:17.615Z,8.44
2022-11-10T19:24:02.751Z,8.30
2022-11-10T19:26:51.705Z,8.17
2022-11-10T19:29:36.832Z,8.13
2022-11-10T19:32:24.789Z,8.05
2022-11-10T19:35:10.993Z,8.04
2022-11-10T19:37:56.084Z,8.02
2022-11-10T19:40:42.460Z,8.03
2022-11-10T19:43:29.634Z,8.00
2022-11-10T19:46:17.683Z,8.03
2022-11-10T19:49:04.080Z,8.04
2022-11-10T19:51:50.429Z,8.05
2022-11-10T19:54:36.357Z,8.11
2022-11-10T19:57:23.076Z,8.15
2022-11-10T20:00:08.814Z,8.15
2022-11-10T20:02:53.962Z,8.13
2022-11-10T20:05:39.848Z,8.07
2022-11-10T20:08:24.917Z,8.04
2022-11-10T20:11:13.706Z,7.98
2022-11-10T20:14:00.568Z,7.98
2022-11-10T20:16:45.516Z,7.98
2022-11-10T20:19:30.390Z,8.00
2022-11-10T20:22:15.479Z,7.97
2022-11-10T20:25:00.497Z,7.96
2022-11-10T20:27:45.816Z,7.94
2022-11-10T20:30:31.927Z,7.94
2022-11-10T20:33:16.634Z,7.92
2022-11-10T20:36:15.986Z,7.93
2022-11-10T20:39:04.021Z,7.91
2022-11-10T20:41:50.849Z,7.93
2022-11-10T20:44:36.320Z,7.93
2022-11-10T20:47:21.226Z,7.87
2022-11-10T20:50:11.480Z,7.96
2022-11-10T20:52:59.500Z,7.95
2022-11-10T20:55:53.465Z,7.89
2022-11-10T20:58:39.875Z,7.78
2022-11-10T21:01:25.431Z,7.70
2022-11-10T21:04:10.939Z,7.60
2022-11-10T21:06:56.121Z,7.56
2022-11-10T21:09:41.266Z,7.51
2022-11-10T21:12:45.002Z,7.51
2022-11-10T21:15:30.030Z,7.51
2022-11-10T21:18:14.728Z,7.51
2022-11-10T21:20:59.629Z,7.52
2022-11-10T21:23:44.496Z,7.53
2022-11-10T21:26:30.913Z,7.50
2022-11-10T21:29:15.975Z,7.45
2022-11-10T21:32:01.054Z,7.43
2022-11-10T21:34:47.177Z,7.45
2022-11-10T21:37:32.352Z,7.46
2022-11-10T21:40:17.422Z,7.44
2022-11-10T21:43:02.585Z,7.40
2022-11-10T21:45:47.447Z,7.37
2022-11-10T21:48:33.241Z,7.38
2022-11-10T21:51:19.823Z,7.38
2022-11-10T21:54:04.871Z,7.36
2022-11-10T21:56:50.140Z,7.34
2022-11-10T21:59:35.098Z,7.32
2022-11-10T22:02:20.300Z,7.29
2022-11-10T22:05:05.737Z,7.33
2022-11-10T22:07:50.445Z,7.37
2022-11-10T22:10:54.044Z,7.42
2022-11-10T22:13:57.989Z,7.43
2022-11-10T22:17:06.123Z,7.38
2022-11-10T22:19:51.196Z,7.26
2022-11-10T22:22:36.072Z,7.19
2022-11-10T22:25:21.063Z,7.18
2022-11-10T22:28:06.165Z,7.18
2022-11-10T22:30:51.296Z,7.17
2022-11-10T22:33:38.091Z,7.13
2022-11-10T22:36:22.868Z,7.11
2022-11-10T22:39:07.935Z,7.06
2022-11-10T22:42:11.961Z,7.01
2022-11-10T22:44:57.764Z,6.98
2022-11-10T22:48:06.043Z,6.92
2022-11-10T22:50:55.170Z,6.90
2022-11-10T22:53:40.095Z,6.88
2022-11-10T22:56:25.558Z,6.85
2022-11-10T22:59:11.592Z,6.85
2022-11-10T23:01:56.543Z,6.83
2022-11-10T23:04:41.497Z,6.83
2022-11-10T23:07:26.249Z,6.83
2022-11-10T23:10:11.080Z,6.82
2022-11-10T23:12:56.891Z,6.82
2022-11-10T23:15:41.987Z,6.80
2022-11-10T23:18:26.802Z,6.79
2022-11-10T23:21:14.360Z,6.76
2022-11-10T23:23:59.586Z,6.80
2022-11-10T23:26:44.486Z,6.77
2022-11-10T23:29:29.558Z,6.71
2022-11-10T23:32:14.393Z,6.66
2022-11-10T23:34:59.249Z,6.63
2022-11-10T23:37:44.118Z,6.62
2022-11-10T23:40:28.961Z,6.62
2022-11-10T23:43:13.808Z,6.63
2022-11-10T23:46:07.648Z,6.64
2022-11-10T23:48:52.898Z,6.67
2022-11-10T23:51:37.650Z,6.68
2022-11-10T23:54:22.419Z,6.70
2022-11-10T23:57:07.404Z,6.71
2022-11-10T23:59:52.600Z,6.66
